Time;durP1;ratioP1;P1;durP2;ratioP2;P2;SDS_P1;SDS_P2;PMS_P1;PMS_P2;Temp;Humidity;BMP_temperature;BMP_pressure;BME280_temperature;BME280_humidity;BME280_pressure;Samples;Min_cycle;Max_cycle;Signal;HPM_P1;HPM_P2
2021/12/31 00:00:58;;;;;;;6.03;2.55;;;10.10;99.90;;;;;;5068526;28;20389;-60
2021/12/31 00:03:24;;;;;;;5.93;2.78;;;10.10;99.90;;;;;;5068815;28;20048;-60
2021/12/31 00:05:49;;;;;;;6.03;2.47;;;10.00;99.90;;;;;;5068437;28;20021;-59
2021/12/31 00:08:15;;;;;;;6.13;3.00;;;10.10;99.90;;;;;;5070895;28;20043;-59
2021/12/31 00:10:41;;;;;;;6.13;2.80;;;10.00;99.90;;;;;;5069889;28;20111;-60
2021/12/31 00:13:06;;;;;;;5.75;2.60;;;10.00;99.90;;;;;;5067800;28;20040;-59
2021/12/31 00:15:32;;;;;;;5.50;2.70;;;10.00;99.90;;;;;;5068135;28;20048;-60
2021/12/31 00:17:58;;;;;;;3.70;2.70;;;10.00;99.90;;;;;;5068304;28;20111;-60
2021/12/31 00:20:25;;;;;;;8.50;2.85;;;9.90;99.90;;;;;;5068535;28;20033;-60
2021/12/31 00:25:23;;;;;;;5.35;2.75;;;9.90;99.90;;;;;;5067540;28;20024;-60
2021/12/31 00:27:49;;;;;;;6.93;3.13;;;9.90;99.90;;;;;;5069217;28;20040;-61
2021/12/31 00:30:16;;;;;;;5.28;2.67;;;9.80;99.90;;;;;;5069867;28;20024;-59
2021/12/31 00:32:42;;;;;;;5.35;2.97;;;9.80;99.90;;;;;;5067790;28;20048;-59
2021/12/31 00:35:08;;;;;;;6.75;2.70;;;9.70;99.90;;;;;;5071026;28;20020;-59
2021/12/31 00:37:37;;;;;;;6.47;2.75;;;9.70;99.90;;;;;;5070782;28;20036;-59
2021/12/31 00:40:09;;;;;;;5.63;2.53;;;9.70;99.90;;;;;;5067794;28;20094;-58
2021/12/31 00:42:34;;;;;;;5.47;3.08;;;9.70;99.90;;;;;;5067581;28;20110;-59
2021/12/31 00:45:01;;;;;;;4.75;2.53;;;9.60;99.90;;;;;;5067884;28;20063;-59
2021/12/31 00:47:26;;;;;;;6.07;2.85;;;9.70;99.90;;;;;;5068596;28;20044;-59
2021/12/31 00:49:52;;;;;;;3.65;2.78;;;9.60;99.90;;;;;;5071135;28;20391;-59
2021/12/31 00:52:18;;;;;;;6.20;3.08;;;9.60;99.90;;;;;;5067846;28;20059;-60
2021/12/31 00:54:44;;;;;;;7.07;3.35;;;9.60;99.90;;;;;;5067534;28;20498;-59
2021/12/31 00:57:11;;;;;;;5.15;3.00;;;9.60;99.90;;;;;;5067393;28;20021;-59
2021/12/31 00:59:37;;;;;;;5.65;3.20;;;9.60;99.90;;;;;;5067797;28;20036;-60
2021/12/31 01:02:05;;;;;;;5.13;2.88;;;9.50;99.90;;;;;;5071000;28;20512;-59
2021/12/31 01:04:32;;;;;;;5.13;3.30;;;9.50;99.90;;;;;;5068619;28;20032;-59
2021/12/31 01:06:58;;;;;;;5.07;3.55;;;9.40;99.90;;;;;;5069529;28;20028;-59
2021/12/31 01:09:28;;;;;;;6.25;3.70;;;9.40;99.90;;;;;;5068911;28;20039;-60
2021/12/31 01:11:56;;;;;;;7.28;3.22;;;9.40;99.90;;;;;;5067085;28;20429;-59
2021/12/31 01:14:30;;;;;;;6.35;3.22;;;9.40;99.90;;;;;;5068803;28;20056;-59
2021/12/31 01:17:00;;;;;;;5.30;2.95;;;9.40;99.90;;;;;;5071484;28;20074;-59
2021/12/31 01:21:53;;;;;;;6.00;3.33;;;9.30;99.90;;;;;;5068556;28;20054;-60
2021/12/31 01:24:22;;;;;;;5.03;3.15;;;9.20;99.90;;;;;;5067274;28;20493;-59
2021/12/31 01:26:48;;;;;;;6.57;3.28;;;9.20;99.90;;;;;;5067383;28;20399;-59
2021/12/31 01:29:14;;;;;;;5.05;3.28;;;9.10;99.90;;;;;;5069794;28;20082;-60
2021/12/31 01:31:39;;;;;;;6.40;3.13;;;8.90;99.90;;;;;;5069399;28;20040;-61
2021/12/31 01:34:06;;;;;;;8.90;3.25;;;8.90;99.90;;;;;;5067180;28;20490;-59
2021/12/31 01:36:32;;;;;;;7.28;3.58;;;8.80;99.90;;;;;;5067177;28;20032;-59
2021/12/31 01:38:58;;;;;;;9.73;3.45;;;8.90;99.90;;;;;;5067198;28;20040;-59
2021/12/31 01:41:24;;;;;;;5.72;3.60;;;8.80;99.90;;;;;;5068089;28;20037;-60
2021/12/31 01:43:52;;;;;;;5.93;3.80;;;8.80;99.90;;;;;;5069708;28;20087;-59
2021/12/31 01:46:18;;;;;;;7.32;4.00;;;8.90;99.90;;;;;;5068602;28;20101;-60
2021/12/31 01:51:24;;;;;;;7.07;3.58;;;8.70;99.90;;;;;;5067258;28;20024;-59
2021/12/31 01:53:50;;;;;;;5.60;3.80;;;8.80;99.90;;;;;;5067177;28;20021;-59
2021/12/31 01:56:18;;;;;;;16.25;14.65;;;8.70;99.90;;;;;;5069516;28;20074;-59
2021/12/31 01:58:47;;;;;;;10.20;5.93;;;8.40;99.90;;;;;;5069174;28;20033;-59
2021/12/31 02:01:13;;;;;;;5.30;4.13;;;8.30;99.90;;;;;;5067623;28;20084;-60
2021/12/31 02:03:39;;;;;;;5.72;4.57;;;8.20;99.90;;;;;;5071029;28;20115;-59
2021/12/31 02:06:05;;;;;;;8.30;5.85;;;8.00;99.90;;;;;;5070751;28;20024;-59
2021/12/31 02:08:32;;;;;;;6.82;4.45;;;7.90;99.90;;;;;;5069963;28;20033;-60
2021/12/31 02:10:57;;;;;;;9.48;5.88;;;7.70;99.90;;;;;;5074512;28;20032;-59
2021/12/31 02:13:24;;;;;;;9.65;5.68;;;7.60;99.90;;;;;;5070728;28;20028;-59
2021/12/31 02:15:51;;;;;;;7.57;5.43;;;7.60;99.90;;;;;;5070586;28;20024;-59
2021/12/31 02:18:17;;;;;;;6.97;4.78;;;7.30;99.90;;;;;;5070929;28;20385;-59
2021/12/31 02:20:46;;;;;;;9.18;5.72;;;7.10;99.90;;;;;;5070633;28;20029;-60
2021/12/31 02:23:16;;;;;;;5.50;4.38;;;7.30;99.90;;;;;;5073335;28;20154;-60
2021/12/31 02:25:42;;;;;;;8.35;5.32;;;7.40;99.90;;;;;;5071933;28;20040;-60
2021/12/31 02:28:08;;;;;;;6.90;4.57;;;7.50;99.90;;;;;;5071955;28;20360;-59
2021/12/31 02:30:34;;;;;;;11.90;6.18;;;7.40;99.90;;;;;;5070088;28;20020;-60
2021/12/31 02:33:00;;;;;;;7.20;4.82;;;7.40;99.90;;;;;;5070808;28;20045;-59
2021/12/31 02:35:26;;;;;;;5.68;4.55;;;7.50;99.90;;;;;;5071561;28;20029;-59
2021/12/31 02:37:52;;;;;;;9.32;5.00;;;7.60;99.90;;;;;;5072043;28;20115;-60
2021/12/31 02:40:19;;;;;;;7.28;4.90;;;7.60;99.90;;;;;;5069980;28;20047;-58
2021/12/31 02:42:45;;;;;;;8.85;5.40;;;7.80;99.90;;;;;;5070168;28;20035;-60
2021/12/31 02:45:12;;;;;;;8.95;5.60;;;7.70;99.90;;;;;;5069979;28;20028;-59
2021/12/31 02:47:43;;;;;;;8.75;6.05;;;7.70;99.90;;;;;;5070127;28;20043;-59
2021/12/31 02:50:12;;;;;;;7.60;4.90;;;7.60;99.90;;;;;;5072313;28;20025;-59
2021/12/31 02:52:38;;;;;;;7.47;5.57;;;7.50;99.90;;;;;;5071955;28;20103;-59
2021/12/31 02:55:05;;;;;;;12.00;5.95;;;7.30;99.90;;;;;;5069672;28;20103;-60
2021/12/31 02:57:31;;;;;;;12.10;6.25;;;7.30;99.90;;;;;;5070279;28;20016;-59
2021/12/31 02:59:57;;;;;;;8.40;5.38;;;7.30;99.90;;;;;;5069603;28;20536;-60
2021/12/31 03:02:24;;;;;;;7.40;5.60;;;7.00;99.90;;;;;;5071147;28;20041;-60
2021/12/31 03:04:55;;;;;;;11.70;6.32;;;7.10;99.90;;;;;;5072867;28;20024;-59
2021/12/31 03:07:23;;;;;;;6.30;4.30;;;6.90;99.90;;;;;;5070898;28;20040;-60
2021/12/31 03:09:50;;;;;;;6.38;5.15;;;6.90;99.90;;;;;;5069375;28;20502;-60
2021/12/31 03:12:16;;;;;;;9.95;5.88;;;7.20;99.90;;;;;;5069543;28;20043;-59
2021/12/31 03:14:47;;;;;;;6.97;5.55;;;7.20;99.90;;;;;;5069895;28;20021;-59
2021/12/31 03:17:13;;;;;;;7.80;5.57;;;6.80;99.90;;;;;;5072093;28;20028;-60
2021/12/31 03:19:40;;;;;;;5.32;4.72;;;6.90;99.90;;;;;;5072157;28;20095;-60
2021/12/31 03:22:05;;;;;;;7.22;5.00;;;7.10;99.90;;;;;;5069296;28;20035;-60
2021/12/31 03:24:32;;;;;;;12.07;6.30;;;7.10;99.90;;;;;;5069497;28;20032;-59
2021/12/31 03:26:58;;;;;;;10.25;6.38;;;7.30;99.90;;;;;;5069824;28;20033;-59
2021/12/31 03:29:24;;;;;;;9.48;5.82;;;7.10;99.90;;;;;;5070982;28;20383;-60
2021/12/31 03:31:50;;;;;;;9.70;5.35;;;7.00;99.90;;;;;;5071931;28;20146;-59
2021/12/31 03:34:16;;;;;;;7.78;5.15;;;7.10;99.90;;;;;;5069098;28;20800;-59
2021/12/31 03:36:42;;;;;;;7.03;4.50;;;6.90;99.90;;;;;;5068806;28;20111;-60
2021/12/31 03:39:09;;;;;;;6.60;5.10;;;6.90;99.90;;;;;;5069205;28;20510;-59
2021/12/31 03:41:35;;;;;;;8.98;5.53;;;6.90;99.90;;;;;;5070763;28;20082;-59
2021/12/31 03:44:03;;;;;;;6.97;5.68;;;6.90;99.90;;;;;;5073356;28;20090;-59
2021/12/31 03:46:29;;;;;;;7.90;5.95;;;6.90;99.90;;;;;;5071985;28;20040;-59
2021/12/31 03:48:54;;;;;;;6.97;5.80;;;6.90;99.90;;;;;;5068879;28;20044;-59
2021/12/31 03:51:20;;;;;;;9.43;5.50;;;6.60;99.90;;;;;;5069392;28;20055;-59
2021/12/31 03:53:46;;;;;;;8.02;6.05;;;6.60;99.90;;;;;;5069403;28;20032;-59
2021/12/31 03:56:11;;;;;;;9.50;5.80;;;6.70;99.90;;;;;;5071654;28;20035;-60
2021/12/31 03:58:37;;;;;;;5.60;5.10;;;6.60;99.90;;;;;;5071031;28;20236;-60
2021/12/31 04:01:03;;;;;;;8.88;6.70;;;6.70;99.90;;;;;;5068211;28;20039;-60
2021/12/31 04:03:29;;;;;;;11.88;6.88;;;6.70;99.90;;;;;;5068863;28;20104;-59
2021/12/31 04:05:55;;;;;;;10.95;7.55;;;6.60;99.90;;;;;;5069239;28;20077;-59
2021/12/31 04:08:21;;;;;;;8.93;6.75;;;6.50;99.90;;;;;;5070963;28;20098;-60
2021/12/31 04:10:47;;;;;;;9.00;6.00;;;6.70;99.90;;;;;;5072663;28;20035;-59
2021/12/31 04:13:13;;;;;;;7.25;6.22;;;6.80;99.90;;;;;;5069231;28;20097;-60
2021/12/31 04:15:38;;;;;;;10.68;6.45;;;6.80;99.90;;;;;;5068055;28;20549;-60
2021/12/31 04:18:04;;;;;;;6.30;5.50;;;7.00;99.90;;;;;;5068281;28;20032;-59
2021/12/31 04:20:37;;;;;;;8.07;5.90;;;7.00;99.90;;;;;;5070726;28;20036;-59
2021/12/31 04:23:10;;;;;;;9.15;5.97;;;7.00;99.90;;;;;;5069985;28;20497;-59
2021/12/31 04:25:37;;;;;;;;;;;7.00;99.90;;;;;;5072688;28;20025;-60
2021/12/31 04:28:04;;;;;;;9.07;6.15;;;7.20;99.90;;;;;;5068010;28;19919;-60
2021/12/31 04:30:29;;;;;;;8.40;6.88;;;7.20;99.90;;;;;;5068569;28;20024;-59
2021/12/31 04:32:55;;;;;;;7.63;6.65;;;7.20;99.90;;;;;;5067903;28;20058;-59
2021/12/31 04:35:21;;;;;;;10.07;6.10;;;7.20;99.90;;;;;;5069479;28;20375;-59
2021/12/31 04:37:47;;;;;;;7.88;5.40;;;7.20;99.90;;;;;;5070381;28;20090;-59
2021/12/31 04:40:13;;;;;;;7.45;5.25;;;7.10;99.90;;;;;;5068388;28;20479;-59
2021/12/31 04:42:44;;;;;;;7.57;5.15;;;7.10;99.90;;;;;;5068082;28;20028;-59
2021/12/31 04:45:12;;;;;;;6.55;5.10;;;7.20;99.90;;;;;;5067624;28;20012;-60
2021/12/31 04:47:39;;;;;;;5.38;4.72;;;7.20;99.90;;;;;;5067786;28;20040;-59
2021/12/31 04:50:06;;;;;;;7.43;5.10;;;7.20;99.90;;;;;;5070838;28;20399;-59
2021/12/31 04:52:32;;;;;;;10.57;5.30;;;7.20;99.90;;;;;;5069130;28;20398;-59
2021/12/31 04:54:58;;;;;;;8.32;5.10;;;7.20;99.90;;;;;;5067752;28;20024;-59
2021/12/31 04:57:25;;;;;;;8.65;5.82;;;7.10;99.90;;;;;;5067476;28;20111;-60
2021/12/31 04:59:51;;;;;;;7.35;5.35;;;6.90;99.90;;;;;;5069444;28;20024;-60
2021/12/31 05:02:17;;;;;;;7.93;5.10;;;6.70;99.90;;;;;;5069840;28;20035;-59
2021/12/31 05:04:44;;;;;;;7.35;5.47;;;6.50;99.90;;;;;;5069937;28;20487;-59
2021/12/31 05:07:10;;;;;;;7.38;5.10;;;6.30;99.90;;;;;;5068951;28;20039;-59
2021/12/31 05:09:36;;;;;;;7.00;4.85;;;6.10;99.90;;;;;;5068815;28;20067;-59
2021/12/31 05:12:04;;;;;;;10.52;6.05;;;6.30;99.90;;;;;;5069095;28;20044;-59
2021/12/31 05:14:30;;;;;;;8.35;6.07;;;6.20;99.90;;;;;;5069937;28;20036;-59
2021/12/31 05:16:58;;;;;;;7.15;5.25;;;5.90;99.90;;;;;;5073108;28;20029;-59
2021/12/31 05:19:24;;;;;;;10.38;5.45;;;6.00;99.90;;;;;;5069504;28;20521;-60
2021/12/31 05:21:51;;;;;;;7.72;6.00;;;5.90;99.90;;;;;;5069193;28;20491;-59
2021/12/31 05:24:17;;;;;;;13.18;6.63;;;5.80;99.90;;;;;;5067933;28;20029;-58
2021/12/31 05:26:46;;;;;;;6.43;5.70;;;5.70;99.90;;;;;;5069274;28;20388;-59
2021/12/31 05:29:12;;;;;;;8.23;5.85;;;5.50;99.90;;;;;;5071009;28;20032;-59
2021/12/31 05:31:37;;;;;;;7.90;5.78;;;5.40;99.90;;;;;;5069187;28;20512;-59
2021/12/31 05:34:03;;;;;;;9.48;5.80;;;5.30;99.90;;;;;;5066840;28;20048;-60
2021/12/31 05:36:29;;;;;;;9.35;6.78;;;5.40;99.90;;;;;;5069275;28;20024;-59
2021/12/31 05:38:55;;;;;;;10.68;5.97;;;5.50;99.90;;;;;;5073164;28;20056;-59
2021/12/31 05:41:20;;;;;;;8.85;5.40;;;5.40;99.90;;;;;;5073004;28;20109;-60
2021/12/31 05:43:46;;;;;;;6.97;5.22;;;5.30;99.90;;;;;;5075228;28;20051;-62
2021/12/31 05:46:12;;;;;;;7.95;4.93;;;5.60;99.90;;;;;;5072072;28;20035;-62
2021/12/31 05:48:37;;;;;;;7.35;5.43;;;5.40;99.90;;;;;;5072116;28;20051;-62
2021/12/31 05:51:03;;;;;;;7.70;6.18;;;5.40;99.90;;;;;;5072345;28;20048;-62
2021/12/31 05:53:30;;;;;;;5.53;4.70;;;5.10;99.90;;;;;;5073005;28;20037;-62
2021/12/31 05:55:56;;;;;;;8.73;6.25;;;5.00;99.90;;;;;;5075760;28;20501;-62
2021/12/31 05:58:22;;;;;;;10.13;6.68;;;5.20;99.90;;;;;;5072295;28;20025;-62
2021/12/31 06:00:47;;;;;;;11.43;7.57;;;5.20;99.90;;;;;;5071694;28;20024;-62
2021/12/31 06:03:13;;;;;;;11.82;8.90;;;5.30;99.90;;;;;;5070491;28;20104;-62
2021/12/31 06:05:39;;;;;;;17.27;10.00;;;5.30;99.90;;;;;;5071123;28;20481;-62
2021/12/31 06:08:05;;;;;;;16.50;10.77;;;5.40;99.90;;;;;;5074598;28;20086;-62
2021/12/31 06:10:31;;;;;;;15.90;11.75;;;5.20;99.90;;;;;;5070254;28;20070;-62
2021/12/31 06:13:00;;;;;;;20.30;12.95;;;5.10;99.90;;;;;;5070614;28;20056;-62
2021/12/31 06:15:28;;;;;;;14.15;8.98;;;5.00;99.90;;;;;;5070864;28;20044;-62
2021/12/31 06:17:54;;;;;;;16.27;9.00;;;4.80;99.90;;;;;;5071938;28;20046;-62
2021/12/31 06:20:20;;;;;;;12.35;6.97;;;4.70;99.90;;;;;;5072423;28;20096;-62
2021/12/31 06:22:46;;;;;;;12.40;6.72;;;4.70;99.90;;;;;;5074660;28;20043;-62
2021/12/31 06:25:12;;;;;;;8.13;5.47;;;4.50;99.90;;;;;;5070108;28;20562;-62
2021/12/31 06:27:37;;;;;;;10.35;5.93;;;4.40;99.90;;;;;;5070278;28;20135;-62
2021/12/31 06:30:05;;;;;;;8.05;5.78;;;4.60;99.90;;;;;;5070476;28;20103;-62
2021/12/31 06:32:30;;;;;;;12.07;6.32;;;4.60;99.90;;;;;;5071852;28;20040;-62
2021/12/31 06:34:56;;;;;;;11.68;6.13;;;4.40;99.90;;;;;;5074452;28;20025;-62
2021/12/31 06:37:22;;;;;;;11.55;7.68;;;4.50;99.90;;;;;;5071147;28;20033;-62
2021/12/31 06:39:47;;;;;;;13.27;8.20;;;4.60;99.90;;;;;;5070999;28;20658;-62
2021/12/31 06:42:13;;;;;;;11.95;8.38;;;4.60;99.90;;;;;;5071705;28;20029;-62
2021/12/31 06:44:40;;;;;;;36.92;21.70;;;4.60;99.90;;;;;;5070594;28;20048;-62
2021/12/31 06:47:07;;;;;;;27.15;19.90;;;4.50;99.90;;;;;;5073484;28;20046;-62
2021/12/31 06:49:33;;;;;;;32.67;24.25;;;4.80;99.90;;;;;;5072499;28;20467;-62
2021/12/31 06:51:59;;;;;;;53.60;43.67;;;4.70;99.90;;;;;;5071051;28;20501;-62
2021/12/31 06:54:24;;;;;;;52.08;40.72;;;4.50;99.90;;;;;;5070543;28;20029;-61
2021/12/31 06:56:50;;;;;;;45.10;35.83;;;4.30;99.90;;;;;;5072888;28;20029;-62
2021/12/31 06:59:16;;;;;;;35.42;25.80;;;4.20;99.90;;;;;;5073230;28;20017;-62
2021/12/31 07:01:42;;;;;;;25.73;16.58;;;4.40;99.90;;;;;;5071735;28;20024;-62
2021/12/31 07:04:08;;;;;;;23.42;15.93;;;4.50;99.90;;;;;;5069544;28;20039;-62
2021/12/31 07:06:34;;;;;;;21.98;17.67;;;4.40;99.90;;;;;;5068720;28;20502;-62
2021/12/31 07:09:00;;;;;;;23.10;16.52;;;4.30;99.90;;;;;;5070286;28;20064;-61
2021/12/31 07:11:26;;;;;;;30.20;19.67;;;4.40;99.90;;;;;;5070725;28;20103;-61
2021/12/31 07:13:52;;;;;;;29.05;20.13;;;4.30;99.90;;;;;;5072221;28;20454;-62
2021/12/31 07:16:18;;;;;;;21.98;14.32;;;4.20;99.90;;;;;;5070415;28;20107;-62
2021/12/31 07:18:44;;;;;;;20.85;11.00;;;4.30;99.90;;;;;;5070381;28;20052;-62
2021/12/31 07:21:10;;;;;;;14.90;9.27;;;4.40;99.90;;;;;;5069893;28;20101;-62
2021/12/31 07:23:36;;;;;;;11.57;7.20;;;4.40;99.90;;;;;;5071083;28;20482;-62
2021/12/31 07:26:03;;;;;;;12.40;9.80;;;4.40;99.90;;;;;;5073807;28;20099;-62
2021/12/31 07:28:28;;;;;;;19.17;11.98;;;4.30;99.90;;;;;;5069971;28;20048;-62
2021/12/31 07:30:55;;;;;;;16.00;11.52;;;4.00;99.90;;;;;;5070206;28;20039;-62
2021/12/31 07:33:22;;;;;;;14.27;10.63;;;3.80;99.90;;;;;;5069734;28;20047;-62
2021/12/31 07:35:52;;;;;;;15.20;11.07;;;4.00;99.90;;;;;;5072372;28;20032;-61
2021/12/31 07:38:33;;;;;;;12.48;7.88;;;3.80;99.90;;;;;;5072395;28;20032;-62
2021/12/31 07:41:00;;;;;;;20.52;13.57;;;3.90;99.90;;;;;;5074518;28;20051;-62
2021/12/31 07:43:25;;;;;;;16.50;13.15;;;4.10;99.90;;;;;;5068609;28;20033;-62
2021/12/31 07:45:52;;;;;;;14.43;11.98;;;4.00;99.90;;;;;;5069463;28;20521;-62
2021/12/31 07:48:19;;;;;;;18.08;12.02;;;3.90;99.90;;;;;;5068762;28;20033;-61
2021/12/31 07:50:45;;;;;;;18.20;14.15;;;4.00;99.90;;;;;;5068964;28;20523;-62
2021/12/31 07:53:11;;;;;;;17.52;13.98;;;4.10;99.90;;;;;;5071835;28;20103;-62
2021/12/31 07:55:37;;;;;;;17.95;15.43;;;4.10;99.90;;;;;;5071626;28;20104;-62
2021/12/31 07:58:05;;;;;;;21.02;16.35;;;4.20;99.90;;;;;;5068399;28;20037;-62
2021/12/31 08:00:31;;;;;;;20.02;15.50;;;4.20;99.90;;;;;;5067491;28;20040;-62
2021/12/31 08:02:57;;;;;;;19.80;15.05;;;4.20;99.90;;;;;;5069002;28;20033;-62
2021/12/31 08:05:24;;;;;;;17.40;14.95;;;4.10;99.90;;;;;;5070636;28;20036;-62
2021/12/31 08:07:49;;;;;;;19.98;14.00;;;4.00;99.90;;;;;;5071091;28;20060;-61
2021/12/31 08:10:15;;;;;;;21.08;15.02;;;4.00;99.90;;;;;;5068659;28;20067;-61
2021/12/31 08:12:41;;;;;;;24.67;18.70;;;4.00;99.90;;;;;;5068247;28;20035;-61
2021/12/31 08:15:07;;;;;;;20.13;15.68;;;4.20;99.90;;;;;;5070324;28;20025;-62
2021/12/31 08:17:33;;;;;;;26.05;17.90;;;4.40;99.90;;;;;;5054868;28;20073;-62
2021/12/31 08:19:59;;;;;;;23.08;12.90;;;4.70;99.90;;;;;;5073928;28;20028;-62
2021/12/31 08:22:25;;;;;;;28.48;20.85;;;5.40;99.90;;;;;;5069508;28;20033;-61
2021/12/31 08:24:51;;;;;;;1406.15;190.48;;;6.70;99.90;;;;;;5069140;28;20017;-62
2021/12/31 08:27:16;;;;;;;26.00;19.48;;;7.90;99.90;;;;;;5069455;28;20020;-62
2021/12/31 08:29:42;;;;;;;23.40;17.50;;;8.60;99.90;;;;;;5069800;28;20094;-62
2021/12/31 08:32:08;;;;;;;20.23;14.60;;;9.30;99.90;;;;;;5071787;28;20048;-62
2021/12/31 08:34:34;;;;;;;20.50;14.85;;;10.00;99.90;;;;;;5069521;28;20461;-61
2021/12/31 08:37:00;;;;;;;22.85;16.60;;;10.30;99.90;;;;;;5068442;28;20075;-63
2021/12/31 08:39:26;;;;;;;24.98;19.30;;;11.50;99.90;;;;;;5067935;28;20546;-62
2021/12/31 08:41:52;;;;;;;23.15;18.77;;;11.30;99.90;;;;;;5067978;28;20104;-63
2021/12/31 08:44:18;;;;;;;37.90;33.92;;;11.50;99.90;;;;;;5072281;28;20020;-62
2021/12/31 08:46:45;;;;;;;31.58;28.17;;;11.50;99.90;;;;;;5069471;28;20028;-64
2021/12/31 08:49:10;;;;;;;97.82;72.07;;;11.60;99.90;;;;;;5067901;28;20020;-62
2021/12/31 08:51:36;;;;;;;45.65;36.35;;;10.90;99.90;;;;;;5067613;28;20028;-61
2021/12/31 08:54:03;;;;;;;37.65;27.70;;;10.30;99.90;;;;;;5069235;28;20024;-61
2021/12/31 08:56:29;;;;;;;44.17;32.75;;;10.80;99.90;;;;;;5069563;28;20017;-62
2021/12/31 08:58:55;;;;;;;63.17;47.15;;;12.20;99.90;;;;;;5072935;28;20031;-61
2021/12/31 09:01:20;;;;;;;52.90;40.75;;;12.90;99.90;;;;;;5068582;28;20028;-62
2021/12/31 09:03:46;;;;;;;68.05;49.55;;;13.80;99.90;;;;;;5069598;28;20028;-62
2021/12/31 09:06:13;;;;;;;55.55;43.28;;;14.90;99.90;;;;;;5068852;28;20127;-62
2021/12/31 09:08:39;;;;;;;54.40;43.75;;;15.20;99.90;;;;;;5068997;28;20032;-62
2021/12/31 09:11:05;;;;;;;43.50;36.30;;;15.50;99.90;;;;;;5071247;28;20028;-62
2021/12/31 09:13:32;;;;;;;28.58;24.52;;;14.20;99.90;;;;;;5068251;28;20032;-59
2021/12/31 09:15:58;;;;;;;27.25;22.30;;;14.40;99.90;;;;;;5067910;28;20029;-61
2021/12/31 09:18:24;;;;;;;21.90;17.25;;;12.90;99.90;;;;;;5068158;28;20501;-59
2021/12/31 09:20:52;;;;;;;16.65;14.23;;;12.50;99.90;;;;;;5067783;28;20108;-59
2021/12/31 09:23:18;;;;;;;12.38;7.00;;;12.80;99.90;;;;;;5070050;28;20036;-59
2021/12/31 09:25:43;;;;;;;8.90;7.32;;;13.70;99.90;;;;;;5069483;28;20028;-59
2021/12/31 09:28:09;;;;;;;7.78;5.30;;;13.50;99.90;;;;;;5067486;28;20052;-59
2021/12/31 09:30:35;;;;;;;7.88;5.15;;;14.90;99.90;;;;;;5067340;28;20028;-59
2021/12/31 09:33:00;;;;;;;8.00;5.05;;;15.00;99.90;;;;;;5069310;28;20051;-62
2021/12/31 09:35:26;;;;;;;6.43;5.00;;;14.30;99.90;;;;;;5069234;28;20032;-59
2021/12/31 09:37:52;;;;;;;8.35;4.82;;;14.10;99.90;;;;;;5071356;28;20059;-59
2021/12/31 09:40:18;;;;;;;8.63;5.00;;;14.00;99.90;;;;;;5066775;28;20037;-60
2021/12/31 09:43:04;;;;;;;7.82;4.75;;;14.50;99.90;;;;;;5067278;28;20029;-60
2021/12/31 09:45:32;;;;;;;9.95;5.05;;;16.40;99.90;;;;;;5067518;28;20028;-61
2021/12/31 09:47:59;;;;;;;6.75;4.72;;;16.90;99.90;;;;;;5067403;28;20041;-60
2021/12/31 09:50:28;;;;;;;9.98;4.55;;;16.80;99.90;;;;;;5068854;28;20033;-60
2021/12/31 09:52:54;;;;;;;10.63;5.03;;;16.80;99.90;;;;;;5070499;28;20071;-59
2021/12/31 09:55:40;;;;;;;12.48;5.00;;;17.60;99.90;;;;;;5067940;28;20430;-60
2021/12/31 09:58:07;;;;;;;9.38;5.13;;;18.50;99.90;;;;;;5067508;28;20553;-60
2021/12/31 10:00:33;;;;;;;13.23;5.57;;;18.50;99.90;;;;;;5067428;28;20545;-60
2021/12/31 10:03:17;;;;;;;10.50;5.80;;;18.80;99.90;;;;;;5067365;28;20024;-60
2021/12/31 10:05:48;;;;;;;12.45;6.20;;;18.70;99.90;;;;;;5052139;28;20029;-61
2021/12/31 10:08:23;;;;;;;12.18;5.97;;;17.90;99.90;;;;;;5069790;28;20032;-60
2021/12/31 10:11:11;;;;;;;9.20;5.30;;;18.60;99.90;;;;;;5069548;28;20025;-61
2021/12/31 10:13:55;;;;;;;10.90;6.20;;;19.40;99.90;;;;;;5068510;28;20032;-60
2021/12/31 10:16:35;;;;;;;9.32;5.82;;;20.10;99.90;;;;;;5068517;28;20021;-60
2021/12/31 10:19:08;;;;;;;12.38;6.35;;;20.50;99.90;;;;;;5066946;28;20055;-60
2021/12/31 10:21:56;;;;;;;13.07;6.20;;;20.60;99.90;;;;;;5067237;28;20105;-60
2021/12/31 10:24:32;;;;;;;10.70;6.10;;;20.00;99.90;;;;;;5070365;28;20025;-60
2021/12/31 10:27:23;;;;;;;12.80;6.18;;;19.50;99.90;;;;;;5071009;28;20067;-60
2021/12/31 10:30:00;;;;;;;15.90;6.40;;;19.80;99.90;;;;;;5056378;28;20484;-60
2021/12/31 10:32:30;;;;;;;15.23;6.25;;;20.40;99.90;;;;;;5072759;28;20051;-60
2021/12/31 10:35:12;;;;;;;16.90;6.20;;;19.40;99.90;;;;;;5074074;28;20463;-60
2021/12/31 10:38:06;;;;;;;11.82;5.53;;;19.10;99.90;;;;;;5074038;28;20032;-60
2021/12/31 10:40:39;;;;;;;15.00;6.60;;;20.10;99.90;;;;;;5072119;28;20051;-60
2021/12/31 10:43:11;;;;;;;;;;;20.50;99.90;;;;;;5071638;28;20169;-60
2021/12/31 10:45:38;;;;;;;16.58;6.38;;;19.60;99.90;;;;;;5070689;28;19909;-60
2021/12/31 10:48:06;;;;;;;17.52;6.88;;;20.40;99.90;;;;;;5069902;28;20387;-60
2021/12/31 10:50:32;;;;;;;20.38;6.70;;;20.40;99.90;;;;;;5071925;28;20020;-60
2021/12/31 10:55:29;;;;;;;19.17;7.05;;;20.50;99.90;;;;;;5071464;28;20115;-60
2021/12/31 10:58:01;;;;;;;14.95;6.13;;;20.00;99.90;;;;;;5069859;28;20036;-61
2021/12/31 11:00:35;;;;;;;13.82;6.05;;;20.60;99.90;;;;;;5070142;28;20088;-60
2021/12/31 11:03:01;;;;;;;12.30;5.70;;;20.50;99.90;;;;;;5070053;28;20036;-60
2021/12/31 11:05:28;;;;;;;16.25;6.38;;;20.20;99.90;;;;;;5071240;28;20024;-60
2021/12/31 11:07:58;;;;;;;14.23;5.88;;;20.90;99.90;;;;;;5073256;28;20040;-60
2021/12/31 11:10:30;;;;;;;16.17;6.43;;;20.60;99.90;;;;;;5070115;28;20089;-60
2021/12/31 11:12:56;;;;;;;18.15;6.20;;;20.60;99.90;;;;;;5070137;28;20024;-60
2021/12/31 11:15:22;;;;;;;19.40;6.43;;;20.50;99.90;;;;;;5069761;28;20103;-60
2021/12/31 11:17:52;;;;;;;17.65;6.40;;;20.60;99.90;;;;;;5071604;28;20124;-60
2021/12/31 11:20:21;;;;;;;18.38;6.90;;;20.70;99.90;;;;;;5072325;28;20478;-60
2021/12/31 11:22:47;;;;;;;15.95;6.45;;;20.60;99.90;;;;;;5072276;28;20039;-60
2021/12/31 11:25:24;;;;;;;14.27;6.20;;;20.10;99.90;;;;;;5069840;28;20110;-60
2021/12/31 11:27:51;;;;;;;16.17;6.30;;;20.20;99.90;;;;;;5069363;28;20038;-60
2021/12/31 11:30:30;;;;;;;17.50;6.43;;;20.40;99.90;;;;;;5071047;28;20032;-61
2021/12/31 11:33:04;;;;;;;16.60;6.05;;;20.60;99.90;;;;;;5070987;28;20053;-60
2021/12/31 11:35:59;;;;;;;17.02;6.35;;;20.10;99.90;;;;;;5069574;28;20029;-60
2021/12/31 11:38:25;;;;;;;14.40;5.85;;;20.50;99.90;;;;;;5069703;28;20032;-60
2021/12/31 11:41:07;;;;;;;21.48;6.60;;;20.60;99.90;;;;;;5072157;28;20103;-60
2021/12/31 11:43:43;;;;;;;14.75;6.30;;;21.20;99.90;;;;;;5070161;28;20032;-60
2021/12/31 11:46:09;;;;;;;20.00;6.90;;;20.70;99.90;;;;;;5068933;28;20027;-61
2021/12/31 11:48:49;;;;;;;15.35;6.22;;;21.10;99.90;;;;;;5070120;28;20037;-60
2021/12/31 11:51:19;;;;;;;14.50;6.38;;;20.70;99.90;;;;;;5069586;28;20024;-60
2021/12/31 11:54:00;;;;;;;15.75;6.03;;;20.70;99.90;;;;;;5069555;28;20483;-60
2021/12/31 11:56:34;;;;;;;14.98;5.72;;;19.70;99.90;;;;;;5070200;28;20090;-60
2021/12/31 11:59:09;;;;;;;10.50;5.32;;;21.10;99.90;;;;;;5073077;28;20052;-60
2021/12/31 12:02:13;;;;;;;12.98;5.90;;;22.10;99.90;;;;;;5070157;28;20031;-61
2021/12/31 12:04:41;;;;;;;15.88;6.22;;;22.20;99.90;;;;;;5071207;28;20048;-60
2021/12/31 12:07:11;;;;;;;14.98;5.78;;;22.60;99.90;;;;;;5068654;28;20033;-60
2021/12/31 12:09:37;;;;;;;13.70;6.70;;;22.30;99.90;;;;;;5068496;28;20029;-60
2021/12/31 12:12:10;;;;;;;16.13;6.55;;;22.80;99.90;;;;;;5070073;28;20066;-60
2021/12/31 12:14:53;;;;;;;12.07;6.00;;;22.60;99.90;;;;;;5052774;28;20055;-61
2021/12/31 12:17:40;;;;;;;15.45;6.57;;;22.80;99.90;;;;;;5071297;28;20040;-61
2021/12/31 12:20:11;;;;;;;15.30;6.60;;;22.60;99.90;;;;;;5071530;28;20027;-61
2021/12/31 12:22:40;;;;;;;14.73;6.63;;;22.60;99.90;;;;;;5069822;28;20025;-60
2021/12/31 12:25:10;;;;;;;16.80;7.38;;;22.10;99.90;;;;;;5068091;28;20445;-60
2021/12/31 12:27:37;;;;;;;15.52;7.13;;;22.10;99.90;;;;;;5068404;28;20561;-60
2021/12/31 12:30:07;;;;;;;16.60;6.53;;;22.20;99.90;;;;;;5068392;28;20024;-60
2021/12/31 12:32:37;;;;;;;14.80;5.82;;;21.80;99.90;;;;;;5068135;28;20041;-61
2021/12/31 12:35:24;;;;;;;13.15;5.95;;;21.60;99.90;;;;;;5068201;28;20017;-60
2021/12/31 12:37:58;;;;;;;12.23;5.18;;;21.60;99.90;;;;;;5070836;28;20032;-60
2021/12/31 12:40:40;;;;;;;12.55;5.18;;;22.20;99.90;;;;;;5067945;28;20031;-60
2021/12/31 12:43:37;;;;;;;13.90;5.10;;;22.00;99.90;;;;;;5067578;28;20035;-61
2021/12/31 12:46:06;;;;;;;11.52;4.47;;;22.30;99.90;;;;;;5066867;28;20036;-60
2021/12/31 12:48:33;;;;;;;10.73;4.55;;;22.30;99.90;;;;;;5068941;28;20044;-61
2021/12/31 12:50:59;;;;;;;10.85;3.78;;;21.70;99.90;;;;;;5069948;28;20112;-60
2021/12/31 12:53:28;;;;;;;8.25;3.75;;;21.60;99.90;;;;;;5069245;28;20172;-61
2021/12/31 12:56:07;;;;;;;10.80;5.90;;;22.00;99.90;;;;;;5070910;28;20078;-60
2021/12/31 12:58:36;;;;;;;11.80;4.22;;;21.40;99.90;;;;;;5068472;28;20506;-60
2021/12/31 13:01:03;;;;;;;13.15;4.32;;;20.70;99.90;;;;;;5069191;28;20051;-60